Time;durP1;ratioP1;P1;durP2;ratioP2;P2;SDS_P1;SDS_P2;PMS_P1;PMS_P2;Temp;Humidity;BMP_temperature;BMP_pressure;BME280_temperature;BME280_humidity;BME280_pressure;Samples;Min_cycle;Max_cycle;Signal;HPM_P1;HPM_P2
2022/10/16 00:00:52;;;;;;;11.98;7.65;;;;;;;10.34;70.84;100810.13;5086673;28;20946;-28
2022/10/16 00:03:17;;;;;;;12.85;7.93;;;;;;;10.00;72.28;100820.59;5087520;28;20027;-27
2022/10/16 00:05:44;;;;;;;12.73;7.60;;;;;;;9.89;72.57;100826.50;5087453;28;20032;-32
2022/10/16 00:08:11;;;;;;;11.95;8.15;;;;;;;9.99;72.05;100826.09;5087358;28;20031;-30
2022/10/16 00:10:37;;;;;;;13.25;7.90;;;;;;;9.65;74.11;100825.09;5069014;28;20032;-31
2022/10/16 00:13:04;;;;;;;13.85;8.50;;;;;;;9.70;73.76;100829.81;5093211;28;20443;-27
2022/10/16 00:15:30;;;;;;;17.65;9.32;;;;;;;9.67;73.82;100816.91;5107627;28;20042;-28
2022/10/16 00:17:55;;;;;;;11.82;8.20;;;;;;;9.75;73.22;100822.09;5107756;28;20023;-30
2022/10/16 00:20:21;;;;;;;13.75;8.18;;;;;;;9.38;74.91;100821.41;5107459;28;20039;-30
2022/10/16 00:22:46;;;;;;;15.88;9.05;;;;;;;9.53;73.98;100806.16;5107570;28;20036;-28
2022/10/16 00:25:12;;;;;;;15.20;8.13;;;;;;;9.44;74.12;100802.81;5107446;28;20387;-28
2022/10/16 00:27:37;;;;;;;10.38;8.02;;;;;;;9.88;72.48;100822.16;5107579;28;20024;-28
2022/10/16 00:30:03;;;;;;;10.73;7.50;;;;;;;10.16;71.38;100829.31;5106054;28;20036;-30
2022/10/16 00:32:29;;;;;;;12.32;7.57;;;;;;;9.97;71.99;100829.00;5107595;28;20690;-26
2022/10/16 00:34:54;;;;;;;13.73;8.02;;;;;;;9.95;71.78;100814.19;5107158;28;20034;-28
2022/10/16 00:37:20;;;;;;;11.38;7.60;;;;;;;10.18;70.54;100824.59;5107062;28;20124;-28
2022/10/16 00:39:46;;;;;;;11.38;8.05;;;;;;;10.21;70.83;100826.84;5107253;28;20055;-27
2022/10/16 00:42:17;;;;;;;12.20;8.10;;;;;;;10.02;69.97;100805.22;5088762;28;20158;-28
2022/10/16 00:44:44;;;;;;;14.95;7.88;;;;;;;9.97;70.11;100828.16;5088906;28;20031;-28
2022/10/16 00:47:12;;;;;;;11.02;7.40;;;;;;;10.04;69.61;100832.50;5105754;28;20089;-27
2022/10/16 00:49:38;;;;;;;13.43;7.70;;;;;;;9.92;69.68;100836.75;5107054;28;20036;-32
2022/10/16 00:52:05;;;;;;;11.07;7.05;;;;;;;9.36;71.38;100834.09;5106973;28;20074;-27
2022/10/16 00:54:33;;;;;;;10.05;7.30;;;;;;;9.47;70.82;100824.75;5107459;28;20034;-27
2022/10/16 00:57:01;;;;;;;13.52;7.68;;;;;;;9.67;70.85;100824.91;5088528;28;20544;-29
2022/10/16 00:59:30;;;;;;;10.65;7.60;;;;;;;9.86;69.77;100842.84;5107487;28;20410;-28
2022/10/16 01:01:57;;;;;;;12.88;8.05;;;;;;;9.94;69.83;100850.69;5107127;28;20494;-26
2022/10/16 01:04:24;;;;;;;13.52;8.57;;;;;;;9.86;69.88;100832.19;5106967;28;20050;-27
2022/10/16 01:07:26;;;;;;;12.90;7.70;;;;;;;9.94;69.60;100850.69;5106940;28;20087;-29
2022/10/16 01:10:01;;;;;;;10.10;7.35;;;;;;;10.03;69.25;100856.69;5107137;28;20122;-28
2022/10/16 01:12:47;;;;;;;11.35;7.35;;;;;;;9.84;68.97;100836.88;5109718;28;20431;-27
2022/10/16 01:15:47;;;;;;;10.65;7.32;;;;;;;10.16;68.40;100862.09;5111176;28;20110;-28
2022/10/16 01:18:39;;;;;;;10.75;7.18;;;;;;;10.14;68.68;100855.31;5111328;28;20538;-27
2022/10/16 01:21:08;;;;;;;14.15;8.18;;;;;;;10.21;68.83;100856.16;5110824;28;20027;-33
2022/10/16 01:23:41;;;;;;;10.25;6.72;;;;;;;10.17;68.83;100849.59;5109606;28;20028;-28
2022/10/16 01:26:12;;;;;;;12.77;8.10;;;;;;;10.29;68.72;100855.19;5110957;28;20122;-28
2022/10/16 01:28:53;;;;;;;12.57;7.70;;;;;;;10.10;69.63;100870.88;5110702;28;20019;-27
2022/10/16 01:31:24;;;;;;;10.05;7.60;;;;;;;10.10;69.75;100848.75;5110481;28;20031;-28
2022/10/16 01:34:29;;;;;;;15.55;7.85;;;;;;;10.40;69.25;100865.31;5110766;28;20027;-28
2022/10/16 01:37:04;;;;;;;16.05;9.00;;;;;;;10.35;69.46;100870.44;5042853;28;20139;-30
2022/10/16 01:39:34;;;;;;;13.90;8.45;;;;;;;10.19;69.61;100842.22;5091965;28;20051;-28
2022/10/16 01:42:15;;;;;;;11.70;7.65;;;;;;;10.04;70.75;100875.16;5110897;28;20119;-28
2022/10/16 01:44:42;;;;;;;16.90;8.95;;;;;;;10.00;71.71;100870.41;5110421;28;20043;-27
2022/10/16 01:47:10;;;;;;;16.10;8.98;;;;;;;10.00;71.73;100857.91;5110636;28;20024;-30
2022/10/16 01:49:38;;;;;;;24.73;13.27;;;;;;;9.92;71.80;100879.38;5110422;28;20028;-27
2022/10/16 01:52:12;;;;;;;32.72;15.77;;;;;;;9.73;72.74;100880.06;5110220;28;20037;-32
2022/10/16 01:54:42;;;;;;;40.80;17.90;;;;;;;9.89;72.16;100871.78;5110418;28;20028;-27
2022/10/16 01:57:08;;;;;;;41.38;18.65;;;;;;;10.13;71.17;100869.66;5110416;28;20027;-26
2022/10/16 01:59:38;;;;;;;39.67;18.75;;;;;;;10.09;71.59;100860.41;5110259;28;20024;-27
2022/10/16 02:02:07;;;;;;;33.13;16.02;;;;;;;9.67;73.23;100857.69;5110303;28;20457;-27
2022/10/16 02:04:38;;;;;;;37.35;17.08;;;;;;;9.88;73.12;100872.78;5109877;28;20434;-32
2022/10/16 02:07:04;;;;;;;27.10;14.57;;;;;;;9.82;72.54;100849.59;5110413;28;20027;-28
2022/10/16 02:09:32;;;;;;;18.60;10.88;;;;;;;9.89;73.87;100861.13;5110204;28;20024;-28
2022/10/16 02:12:02;;;;;;;24.83;13.10;;;;;;;9.89;74.88;100877.09;5110319;28;20055;-28
2022/10/16 02:14:29;;;;;;;25.30;13.02;;;;;;;9.80;75.81;100878.25;5110058;28;20032;-27
2022/10/16 02:16:54;;;;;;;24.25;12.60;;;;;;;9.64;76.20;100876.69;5109906;28;20729;-28
2022/10/16 02:19:21;;;;;;;20.70;11.35;;;;;;;9.80;75.59;100884.41;5109912;28;20070;-30
2022/10/16 02:21:53;;;;;;;16.75;10.40;;;;;;;9.82;75.38;100882.38;5109963;28;20110;-27
2022/10/16 02:24:37;;;;;;;16.35;8.93;;;;;;;9.79;76.07;100893.44;5108971;28;20460;-28
2022/10/16 02:27:09;;;;;;;19.52;10.13;;;;;;;9.78;76.07;100889.09;5109927;28;20035;-27
2022/10/16 02:29:41;;;;;;;14.80;8.50;;;;;;;9.83;75.03;100864.56;5091233;28;20216;-28
2022/10/16 02:32:10;;;;;;;15.07;7.95;;;;;;;9.85;74.74;100870.53;5110179;28;20026;-27
2022/10/16 02:34:37;;;;;;;19.05;9.27;;;;;;;9.94;75.37;100889.84;5109577;28;20031;-30
2022/10/16 02:37:05;;;;;;;21.95;9.40;;;;;;;10.12;74.14;100897.34;5109836;28;20047;-28
2022/10/16 02:39:31;;;;;;;18.60;10.25;;;;;;;9.82;74.86;100878.88;5109699;28;20065;-28
2022/10/16 02:41:56;;;;;;;19.40;10.18;;;;;;;9.83;75.59;100894.69;5109540;28;20027;-27
2022/10/16 02:44:22;;;;;;;16.85;10.35;;;;;;;9.83;76.10;100891.19;5109320;28;20031;-26
2022/10/16 02:46:47;;;;;;;17.20;10.00;;;;;;;9.85;76.01;100873.19;5109488;28;20579;-30
2022/10/16 02:49:12;;;;;;;17.63;9.77;;;;;;;9.99;75.82;100890.06;5109866;28;20030;-28
2022/10/16 02:51:38;;;;;;;14.75;8.73;;;;;;;9.91;75.55;100867.06;5109727;28;20019;-28
2022/10/16 02:54:03;;;;;;;14.82;8.68;;;;;;;10.11;75.20;100901.00;5109524;28;20024;-28
2022/10/16 02:56:29;;;;;;;16.63;8.73;;;;;;;9.97;75.38;100902.75;5091062;28;20038;-27
2022/10/16 02:58:55;;;;;;;20.02;10.43;;;;;;;9.87;76.22;100905.78;5109015;28;20543;-28
2022/10/16 03:01:21;;;;;;;15.70;9.48;;;;;;;10.12;75.31;100900.00;5109585;28;20062;-29
2022/10/16 03:03:46;;;;;;;14.18;8.52;;;;;;;10.25;75.27;100902.75;5107902;28;20034;-28
2022/10/16 03:06:11;;;;;;;18.20;9.00;;;;;;;10.04;76.11;100898.31;5109227;28;20031;-27
2022/10/16 03:08:37;;;;;;;15.77;9.82;;;;;;;9.93;76.50;100901.50;5090408;28;20027;-29
2022/10/16 03:11:02;;;;;;;17.88;9.20;;;;;;;10.33;74.90;100904.47;5109305;28;20528;-27
2022/10/16 03:13:28;;;;;;;15.45;9.88;;;;;;;10.03;74.77;100894.84;5108677;28;20032;-29
2022/10/16 03:15:53;;;;;;;16.35;10.88;;;;;;;10.17;75.21;100924.22;5107959;28;20488;-28
2022/10/16 03:18:19;;;;;;;23.20;11.48;;;;;;;9.98;75.18;100896.44;5091032;28;20028;-28
2022/10/16 03:20:44;;;;;;;28.65;14.05;;;;;;;9.86;75.62;100902.28;5108715;28;20429;-27
2022/10/16 03:23:10;;;;;;;50.00;22.10;;;;;;;9.78;76.52;100914.91;5109081;28;20032;-27
2022/10/16 03:25:35;;;;;;;94.22;40.00;;;;;;;9.65;77.11;100916.47;5108760;28;20475;-32
2022/10/16 03:28:01;;;;;;;40.30;18.83;;;;;;;9.56;77.12;100891.00;5108776;28;20852;-28
2022/10/16 03:30:27;;;;;;;46.25;21.25;;;;;;;9.64;77.28;100911.31;5107460;28;20023;-28
2022/10/16 03:32:53;;;;;;;21.67;10.80;;;;;;;9.73;77.83;100922.69;5108628;28;20042;-28
2022/10/16 03:35:23;;;;;;;14.45;8.27;;;;;;;9.57;78.26;100919.25;5090140;28;20041;-29
2022/10/16 03:37:49;;;;;;;12.18;7.60;;;;;;;9.47;77.63;100913.44;5108812;28;20059;-27
2022/10/16 03:40:16;;;;;;;9.93;7.32;;;;;;;9.81;77.69;100927.88;5108623;28;20035;-27
2022/10/16 03:42:45;;;;;;;12.85;7.53;;;;;;;9.92;76.59;100927.31;5108392;28;20049;-28
2022/10/16 03:45:11;;;;;;;10.65;7.30;;;;;;;10.11;75.86;100933.00;5090469;28;20495;-27
2022/10/16 03:47:36;;;;;;;11.48;7.72;;;;;;;9.96;75.34;100923.25;5108545;28;20480;-26
2022/10/16 03:50:04;;;;;;;11.00;7.18;;;;;;;9.92;75.33;100923.84;5108456;28;20034;-29
2022/10/16 03:52:29;;;;;;;16.25;9.68;;;;;;;10.01;76.14;100936.84;5108355;28;20126;-28
2022/10/16 03:54:55;;;;;;;13.68;8.10;;;;;;;9.99;75.01;100948.69;5108159;28;20030;-28
2022/10/16 03:57:21;;;;;;;11.23;7.57;;;;;;;9.56;76.58;100920.28;5089705;28;20024;-27
2022/10/16 03:59:46;;;;;;;12.98;7.60;;;;;;;9.56;77.03;100916.78;5090310;28;20026;-27
2022/10/16 04:02:12;;;;;;;17.98;10.57;;;;;;;9.92;75.69;100948.66;5108467;28;20479;-27
2022/10/16 04:04:38;;;;;;;19.13;10.60;;;;;;;9.96;75.45;100936.59;5108396;28;20501;-29
2022/10/16 04:07:04;;;;;;;17.45;9.70;;;;;;;9.86;74.93;100928.09;5108237;28;20074;-29
2022/10/16 04:09:29;;;;;;;49.33;22.88;;;;;;;9.90;75.49;100915.22;5089731;28;20491;-28
2022/10/16 04:11:54;;;;;;;84.97;33.50;;;;;;;10.07;74.59;100940.56;5107996;28;20092;-27
2022/10/16 04:14:20;;;;;;;49.90;23.80;;;;;;;9.97;75.03;100956.91;5108109;28;20038;-30
2022/10/16 04:16:45;;;;;;;43.38;18.98;;;;;;;10.04;74.67;100952.44;5108090;28;20020;-27
2022/10/16 04:19:11;;;;;;;12.48;8.63;;;;;;;9.97;74.99;100943.56;5108013;28;20456;-27
2022/10/16 04:21:37;;;;;;;15.90;8.60;;;;;;;9.90;75.07;100924.03;5108078;28;20024;-27
2022/10/16 04:24:03;;;;;;;11.60;7.88;;;;;;;10.09;74.30;100948.34;5107840;28;20035;-28
2022/10/16 04:26:28;;;;;;;15.93;7.93;;;;;;;10.09;74.32;100949.16;5107784;28;20134;-31
2022/10/16 04:28:54;;;;;;;13.90;8.13;;;;;;;9.91;74.68;100941.69;5107689;28;20228;-27
2022/10/16 04:31:20;;;;;;;15.68;8.52;;;;;;;9.59;75.56;100917.22;5108098;28;20092;-28
2022/10/16 04:33:45;;;;;;;18.95;8.70;;;;;;;9.82;75.17;100945.47;5107815;28;20414;-27
2022/10/16 04:36:11;;;;;;;22.23;13.10;;;;;;;9.78;74.95;100941.56;5089264;28;20406;-29
2022/10/16 04:38:37;;;;;;;19.45;13.63;;;;;;;9.56;75.57;100938.94;5107885;28;20055;-28
2022/10/16 04:41:03;;;;;;;18.58;12.93;;;;;;;9.39;76.46;100953.50;5107472;28;20789;-28
2022/10/16 04:43:29;;;;;;;13.85;9.98;;;;;;;9.67;74.28;100950.06;5107814;28;20084;-28
2022/10/16 04:45:54;;;;;;;13.70;9.00;;;;;;;9.84;73.77;100960.25;5107384;28;20049;-27
2022/10/16 04:48:20;;;;;;;11.60;7.57;;;;;;;9.50;74.36;100945.00;5107663;28;20110;-30
2022/10/16 04:50:46;;;;;;;14.35;8.75;;;;;;;9.59;73.73;100943.84;5107486;28;20034;-29
2022/10/16 04:53:12;;;;;;;17.42;9.70;;;;;;;9.47;74.16;100944.56;5089164;28;20032;-30
2022/10/16 04:55:38;;;;;;;14.73;8.95;;;;;;;9.52;74.94;100956.28;5107255;28;20493;-27
2022/10/16 04:58:04;;;;;;;26.17;11.60;;;;;;;9.22;75.86;100969.69;5107419;28;20036;-30
2022/10/16 05:00:29;;;;;;;50.35;22.60;;;;;;;8.68;77.51;100930.16;5107693;28;20484;-28
2022/10/16 05:02:54;;;;;;;32.58;16.05;;;;;;;9.08;76.94;100954.59;5107223;28;20031;-26
2022/10/16 05:05:20;;;;;;;34.40;17.27;;;;;;;9.16;76.30;100951.81;5107554;28;20023;-27
2022/10/16 05:07:46;;;;;;;39.67;15.05;;;;;;;9.41;75.86;100978.91;5107233;28;20028;-29
2022/10/16 05:10:12;;;;;;;15.75;9.23;;;;;;;9.44;74.92;100980.38;5107134;28;20030;-30
2022/10/16 05:12:37;;;;;;;10.98;7.45;;;;;;;9.31;75.01;100972.25;5107294;28;20402;-28
2022/10/16 05:15:04;;;;;;;50.22;19.90;;;;;;;9.08;76.09;100973.22;5107166;28;20476;-30
2022/10/16 05:17:29;;;;;;;54.55;25.02;;;;;;;8.90;76.96;100980.78;5089039;28;20499;-27
2022/10/16 05:19:54;;;;;;;96.57;32.50;;;;;;;9.09;77.01;100988.16;5107297;28;20107;-28
2022/10/16 05:22:20;;;;;;;87.85;34.78;;;;;;;9.24;76.59;100978.31;5107428;28;20035;-28
2022/10/16 05:24:45;;;;;;;67.75;28.02;;;;;;;9.29;76.60;100979.59;5088395;28;20031;-30
2022/10/16 05:27:18;;;;;;;27.25;14.25;;;;;;;9.46;76.18;100991.66;5107319;28;20034;-29
2022/10/16 05:29:45;;;;;;;21.17;10.98;;;;;;;9.66;75.15;100975.88;5072889;28;20031;-27
2022/10/16 05:32:10;;;;;;;38.42;16.08;;;;;;;9.79;74.82;100986.66;5088787;28;20031;-28
2022/10/16 05:34:36;;;;;;;21.15;10.77;;;;;;;9.60;75.32;100972.16;5105328;28;20042;-27
2022/10/16 05:37:01;;;;;;;13.77;8.38;;;;;;;9.64;75.58;100988.53;5088663;28;20039;-28
2022/10/16 05:39:26;;;;;;;10.82;7.57;;;;;;;9.47;76.11;100987.97;5107061;28;20565;-27
2022/10/16 05:41:52;;;;;;;12.73;7.75;;;;;;;9.65;75.30;100984.88;5107197;28;20035;-27
2022/10/16 05:44:17;;;;;;;14.00;7.60;;;;;;;9.83;75.19;101003.09;5107004;28;20042;-26
2022/10/16 05:46:43;;;;;;;11.95;7.13;;;;;;;9.91;75.30;100994.97;5106822;28;20468;-26
2022/10/16 05:49:08;;;;;;;13.63;8.02;;;;;;;9.96;75.57;101005.88;5088566;28;20023;-28
2022/10/16 05:51:34;;;;;;;35.00;15.18;;;;;;;10.31;74.22;101021.16;5107099;28;20023;-33
2022/10/16 05:53:59;;;;;;;44.63;20.05;;;;;;;10.37;73.81;101009.72;5106787;28;20569;-31
2022/10/16 05:56:24;;;;;;;51.10;18.83;;;;;;;10.55;73.26;101009.22;5107098;28;20502;-27
2022/10/16 05:58:50;;;;;;;28.17;13.27;;;;;;;10.70;73.14;101025.09;5108277;28;20038;-30
2022/10/16 06:01:17;;;;;;;15.73;8.73;;;;;;;10.74;72.75;101031.69;5111027;28;20099;-31
2022/10/16 06:03:44;;;;;;;12.07;7.68;;;;;;;10.81;73.41;101017.38;5092135;28;20050;-28
2022/10/16 06:06:15;;;;;;;12.68;7.85;;;;;;;10.90;72.99;101030.56;5092228;28;20023;-31
2022/10/16 06:08:42;;;;;;;12.75;7.43;;;;;;;11.06;72.29;101038.25;5110080;28;20059;-29
2022/10/16 06:11:10;;;;;;;13.63;7.85;;;;;;;11.15;72.39;101037.03;5110787;28;20028;-28
2022/10/16 06:13:36;;;;;;;11.27;7.93;;;;;;;11.05;71.11;101021.41;5075012;28;20501;-29
2022/10/16 06:16:03;;;;;;;13.63;8.25;;;;;;;11.14;71.64;101047.94;5110585;28;20032;-27
2022/10/16 06:18:29;;;;;;;11.00;7.75;;;;;;;11.27;71.16;101038.09;5110406;28;20404;-27
2022/10/16 06:20:55;;;;;;;11.23;7.22;;;;;;;11.27;71.26;101050.66;5110092;28;20106;-30
2022/10/16 06:23:21;;;;;;;12.38;7.60;;;;;;;11.33;70.23;101033.00;5110118;28;20035;-28
2022/10/16 06:25:47;;;;;;;11.50;7.35;;;;;;;11.59;70.10;101051.78;5110335;28;20479;-30
2022/10/16 06:28:15;;;;;;;12.43;8.70;;;;;;;11.31;71.17;101056.41;5109939;28;20056;-28
2022/10/16 06:30:43;;;;;;;102.20;58.92;;;;;;;11.57;71.48;101051.16;5109823;28;20053;-28
2022/10/16 06:33:10;;;;;;;28.08;16.55;;;;;;;11.79;71.58;101062.53;5109832;28;20028;-29
2022/10/16 06:35:36;;;;;;;87.82;56.47;;;;;;;12.03;70.37;101066.53;5091296;28;20031;-27
2022/10/16 06:38:01;;;;;;;46.72;32.88;;;;;;;12.14;69.99;101064.25;5088155;28;20121;-27
2022/10/16 06:40:26;;;;;;;44.40;29.55;;;;;;;12.26;69.66;101062.63;5089535;28;20024;-28
2022/10/16 06:42:55;;;;;;;43.58;28.42;;;;;;;12.21;69.17;101049.03;5089330;28;20036;-26
2022/10/16 06:45:20;;;;;;;;;;;;;;;12.73;67.63;101068.75;5089887;28;20028;-27
2022/10/16 06:47:45;;;;;;;57.22;31.73;;;;;;;12.84;68.57;101075.31;5087734;28;19965;-27
2022/10/16 06:50:11;;;;;;;17.58;9.55;;;;;;;12.88;67.65;101054.31;5088218;28;20417;-27
2022/10/16 06:52:36;;;;;;;13.00;8.40;;;;;;;12.92;67.08;101055.53;5089381;28;20024;-29
2022/10/16 06:55:02;;;;;;;13.48;8.02;;;;;;;12.94;67.33;101056.97;5089264;28;20032;-26
2022/10/16 06:57:28;;;;;;;14.07;8.40;;;;;;;13.22;66.82;101080.78;5089359;28;20108;-30
2022/10/16 06:59:53;;;;;;;13.05;8.10;;;;;;;13.14;67.50;101081.03;5089037;28;20491;-28
2022/10/16 07:02:19;;;;;;;13.18;8.43;;;;;;;13.38;66.99;101086.72;5088853;28;20020;-29
2022/10/16 07:04:44;;;;;;;12.23;8.40;;;;;;;13.34;66.74;101069.44;5088497;28;20028;-27
2022/10/16 07:07:10;;;;;;;16.02;9.38;;;;;;;13.26;66.84;101073.97;5088713;28;20103;-27
2022/10/16 07:09:35;;;;;;;12.68;7.50;;;;;;;13.54;66.42;101085.44;5088574;28;20028;-27
2022/10/16 07:12:01;;;;;;;11.90;6.85;;;;;;;13.51;66.20;101094.72;5088688;28;20156;-27
2022/10/16 07:14:26;;;;;;;14.77;8.70;;;;;;;13.53;66.31;101089.97;5087346;28;20125;-28
2022/10/16 07:16:52;;;;;;;15.35;8.85;;;;;;;13.56;66.49;101086.03;5088272;28;20031;-28
2022/10/16 07:19:18;;;;;;;12.20;7.65;;;;;;;13.84;65.38;101091.88;5088350;28;20096;-37
2022/10/16 07:21:44;;;;;;;12.77;7.65;;;;;;;13.85;65.38;101072.06;5088733;28;20026;-29
2022/10/16 07:24:16;;;;;;;14.40;8.35;;;;;;;14.25;64.51;101098.59;5088487;28;20405;-29
2022/10/16 07:26:44;;;;;;;15.13;9.60;;;;;;;14.34;64.81;101096.47;5088295;28;20036;-29
2022/10/16 07:29:15;;;;;;;16.70;9.52;;;;;;;14.49;65.06;101101.53;5088476;28;20063;-29
2022/10/16 07:31:41;;;;;;;19.85;9.80;;;;;;;14.76;63.40;101099.44;5088606;28;20028;-28
2022/10/16 07:34:07;;;;;;;13.05;9.35;;;;;;;14.81;62.22;101069.25;5088380;28;20543;-28
2022/10/16 07:36:32;;;;;;;11.57;7.90;;;;;;;14.72;61.98;101081.31;5087254;28;20107;-30
2022/10/16 07:38:57;;;;;;;14.93;8.50;;;;;;;14.84;61.93;101088.44;5101577;28;20047;-29
2022/10/16 07:41:23;;;;;;;13.52;8.30;;;;;;;14.88;60.93;101090.69;5108459;28;20398;-28
2022/10/16 07:43:51;;;;;;;12.93;8.20;;;;;;;14.67;62.56;101079.31;5108672;28;20023;-26
2022/10/16 07:46:17;;;;;;;12.63;9.27;;;;;;;15.12;61.76;101097.00;5089882;28;20020;-28
2022/10/16 07:48:46;;;;;;;15.85;8.93;;;;;;;15.31;60.00;101103.22;5107981;28;20130;-30
2022/10/16 07:51:12;;;;;;;11.95;7.75;;;;;;;15.25;60.89;101095.00;5090060;28;20066;-31
2022/10/16 07:53:37;;;;;;;10.82;7.60;;;;;;;15.43;59.50;101098.75;5106993;28;20555;-29
2022/10/16 07:56:05;;;;;;;13.55;7.90;;;;;;;15.41;59.71;101095.47;5108340;28;20026;-30
2022/10/16 07:58:32;;;;;;;12.73;7.55;;;;;;;15.28;59.22;101064.16;5108238;28;20027;-28
2022/10/16 08:00:58;;;;;;;13.00;7.55;;;;;;;15.72;58.46;101107.91;5107893;28;20058;-29
2022/10/16 08:03:24;;;;;;;11.85;7.68;;;;;;;15.93;58.75;101101.19;5108043;28;20118;-28
2022/10/16 08:05:50;;;;;;;12.05;6.75;;;;;;;16.04;56.63;101096.91;5108322;28;20023;-28
2022/10/16 08:08:19;;;;;;;14.00;7.00;;;;;;;15.94;57.41;101112.78;5108229;28;20035;-29
2022/10/16 08:10:45;;;;;;;11.65;7.03;;;;;;;16.03;57.13;101097.94;5107778;28;20096;-28
2022/10/16 08:13:10;;;;;;;12.20;7.03;;;;;;;16.15;57.34;101092.59;5089540;28;20027;-29
2022/10/16 08:15:36;;;;;;;12.38;6.40;;;;;;;16.13;56.39;101070.50;5107715;28;20421;-27
2022/10/16 08:18:04;;;;;;;12.02;7.43;;;;;;;16.66;55.57;101105.41;5107818;28;20512;-30
2022/10/16 08:20:31;;;;;;;13.43;7.13;;;;;;;16.85;55.37;101092.69;5107817;28;20084;-28
2022/10/16 08:22:56;;;;;;;10.88;6.07;;;;;;;16.97;53.37;101086.47;5108088;28;20042;-28
2022/10/16 08:25:23;;;;;;;12.63;7.63;;;;;;;16.51;53.39;101066.53;5107815;28;20024;-27
2022/10/16 08:27:49;;;;;;;11.45;7.57;;;;;;;16.60;53.23;101065.97;5107881;28;20042;-29
2022/10/16 08:30:16;;;;;;;10.32;7.22;;;;;;;17.02;54.10;101056.91;5089142;28;20032;-26
2022/10/16 08:32:42;;;;;;;13.90;8.00;;;;;;;17.06;53.54;101069.72;5107642;28;20564;-27
2022/10/16 08:35:09;;;;;;;11.32;6.68;;;;;;;17.25;52.17;101086.53;5107609;28;20031;-27
2022/10/16 08:37:34;;;;;;;11.43;6.75;;;;;;;17.56;52.95;101070.97;5107518;28;20040;-30
2022/10/16 08:40:00;;;;;;;11.13;6.18;;;;;;;17.61;51.02;101083.72;5106283;28;20072;-29
2022/10/16 08:42:52;;;;;;;9.30;6.43;;;;;;;17.44;50.27;101092.56;5107578;28;20031;-27
2022/10/16 08:45:48;;;;;;;13.68;7.50;;;;;;;17.55;50.06;101088.22;5107590;28;20111;-27
2022/10/16 08:48:25;;;;;;;9.55;6.78;;;;;;;17.87;51.31;101095.84;5107659;28;20027;-28
2022/10/16 08:50:52;;;;;;;10.98;6.35;;;;;;;17.68;50.24;101065.53;5107129;28;20035;-28
2022/10/16 08:53:25;;;;;;;10.60;6.63;;;;;;;17.80;48.90;101081.66;5088942;28;20038;-28
2022/10/16 08:55:53;;;;;;;8.70;5.85;;;;;;;17.52;48.89;101083.28;5107206;28;20115;-27
2022/10/16 08:58:21;;;;;;;10.05;6.63;;;;;;;17.65;48.02;101072.22;5107455;28;20114;-28
2022/10/16 09:00:47;;;;;;;;;;;;;;;17.82;47.70;101098.41;5107479;28;20028;-29
2022/10/16 09:03:37;;;;;;;17.35;7.78;;;;;;;17.87;47.37;101095.84;5107185;28;19915;-28
2022/10/16 09:06:30;;;;;;;11.98;7.28;;;;;;;17.99;46.15;101080.41;5107323;28;20054;-28
2022/10/16 09:09:12;;;;;;;10.15;6.63;;;;;;;18.23;46.75;101099.97;5106777;28;20034;-27
2022/10/16 09:12:03;;;;;;;10.60;7.38;;;;;;;18.21;45.60;101098.59;5105639;28;20114;-28
2022/10/16 09:14:31;;;;;;;9.95;7.57;;;;;;;18.48;43.50;101091.47;5107244;28;20016;-27
2022/10/16 09:17:04;;;;;;;13.50;8.38;;;;;;;18.06;43.00;101078.38;5106723;28;20092;-28
2022/10/16 09:19:37;;;;;;;12.90;7.93;;;;;;;18.46;44.54;101093.59;5088712;28;20035;-28
2022/10/16 09:22:14;;;;;;;15.68;7.82;;;;;;;18.67;44.48;101075.00;5107001;28;20048;-28
2022/10/16 09:24:39;;;;;;;12.98;8.00;;;;;;;18.91;42.27;101083.75;5107047;28;20047;-32
2022/10/16 09:27:06;;;;;;;11.23;8.48;;;;;;;19.19;42.72;101073.84;5107062;28;20063;-30
2022/10/16 09:29:32;;;;;;;14.82;10.23;;;;;;;19.22;41.53;101063.31;5106780;28;20495;-29
2022/10/16 09:32:11;;;;;;;13.00;8.32;;;;;;;19.18;42.28;101078.41;5107086;28;20031;-30
2022/10/16 09:34:42;;;;;;;11.02;7.68;;;;;;;19.32;40.58;101078.84;5110020;28;20024;-28
2022/10/16 09:37:16;;;;;;;11.48;7.22;;;;;;;19.34;40.31;101087.53;5111127;28;20035;-32
2022/10/16 09:39:49;;;;;;;13.20;8.20;;;;;;;19.74;40.86;101080.97;5111009;28;20048;-27
2022/10/16 09:42:21;;;;;;;13.30;8.27;;;;;;;20.07;40.02;101079.94;5110725;28;20024;-33
2022/10/16 09:44:51;;;;;;;12.55;8.45;;;;;;;20.04;38.92;101080.47;5110486;28;20032;-27
2022/10/16 09:47:20;;;;;;;15.40;7.70;;;;;;;20.35;39.83;101069.03;5110365;28;20179;-27
2022/10/16 09:49:59;;;;;;;11.57;8.00;;;;;;;19.72;40.17;101068.78;5110900;28;20127;-31
2022/10/16 09:52:25;;;;;;;11.68;7.32;;;;;;;19.74;39.78;101069.34;5110660;28;20027;-29
2022/10/16 09:54:53;;;;;;;16.92;9.07;;;;;;;19.48;41.09;101060.91;5110266;28;20099;-32
2022/10/16 09:57:20;;;;;;;20.40;10.18;;;;;;;19.67;40.64;101069.50;5109092;28;20172;-29
2022/10/16 09:59:53;;;;;;;10.85;7.57;;;;;;;19.75;39.59;101044.72;5110264;28;20031;-28
2022/10/16 10:02:26;;;;;;;10.50;7.90;;;;;;;20.09;38.72;101073.44;5110429;28;20434;-28
2022/10/16 10:04:54;;;;;;;17.42;8.00;;;;;;;20.53;39.88;101060.50;5109967;28;20028;-28
2022/10/16 10:07:27;;;;;;;12.63;7.40;;;;;;;20.73;37.57;101034.63;5108553;28;20027;-29
2022/10/16 10:09:55;;;;;;;13.60;7.50;;;;;;;20.56;37.69;101045.63;5110246;28;20034;-28
2022/10/16 10:12:26;;;;;;;10.95;6.80;;;;;;;20.63;37.50;101052.44;5091553;28;20369;-29
2022/10/16 10:14:54;;;;;;;11.48;7.18;;;;;;;20.67;38.48;101047.34;5109804;28;20032;-29
2022/10/16 10:17:23;;;;;;;12.90;7.70;;;;;;;20.80;37.58;101049.59;5109992;28;20039;-29
2022/10/16 10:19:57;;;;;;;11.63;8.35;;;;;;;20.90;37.82;101031.72;5109912;28;20024;-29
2022/10/16 10:22:43;;;;;;;13.55;7.88;;;;;;;21.16;36.22;101052.44;5109970;28;20023;-31
2022/10/16 10:25:12;;;;;;;14.33;7.70;;;;;;;21.41;37.05;101056.31;5110187;28;20028;-28
2022/10/16 10:28:02;;;;;;;10.38;7.32;;;;;;;21.71;36.03;101054.81;5109768;28;20483;-27
2022/10/16 10:30:58;;;;;;;11.55;7.93;;;;;;;21.52;35.37;101055.31;5081838;28;20043;-29
2022/10/16 10:33:54;;;;;;;40.05;17.27;;;;;;;21.51;36.06;101045.53;5102321;28;20423;-29
2022/10/16 10:36:30;;;;;;;9.80;6.22;;;;;;;20.87;36.33;101038.50;5105422;28;20070;-28
2022/10/16 10:39:02;;;;;;;10.20;7.25;;;;;;;21.25;37.35;101029.16;5108345;28;20104;-31
2022/10/16 10:41:53;;;;;;;14.50;8.45;;;;;;;21.58;35.78;101034.44;5109354;28;20687;-29
2022/10/16 10:44:33;;;;;;;16.65;10.63;;;;;;;21.67;36.32;101030.88;5109103;28;20032;-28
2022/10/16 10:47:04;;;;;;;12.23;7.65;;;;;;;21.20;36.49;101029.13;5108098;28;20034;-28
2022/10/16 10:49:36;;;;;;;10.07;7.03;;;;;;;20.84;37.02;101026.28;5107816;28;20027;-29
2022/10/16 10:52:20;;;;;;;9.13;6.80;;;;;;;21.44;36.02;101021.38;5109536;28;20112;-29
2022/10/16 10:54:51;;;;;;;8.70;6.80;;;;;;;22.01;35.23;101024.94;5109252;28;20068;-29
2022/10/16 10:57:50;;;;;;;13.77;8.27;;;;;;;22.07;35.78;101026.56;5107838;28;20034;-28
2022/10/16 11:00:31;;;;;;;10.23;6.68;;;;;;;22.43;34.14;101021.16;5109192;28;20399;-28
2022/10/16 11:03:24;;;;;;;11.60;6.80;;;;;;;22.80;33.17;101014.50;5108819;28;20063;-28
2022/10/16 11:06:11;;;;;;;10.82;6.72;;;;;;;22.56;34.02;101005.34;5108786;28;20023;-28
2022/10/16 11:08:58;;;;;;;9.10;6.20;;;;;;;23.11;33.29;101008.13;5107614;28;20547;-32
2022/10/16 11:11:34;;;;;;;11.20;6.03;;;;;;;23.10;32.93;101010.03;5109036;28;20035;-29
2022/10/16 11:14:08;;;;;;;11.15;6.03;;;;;;;22.72;33.53;101001.50;5108113;28;20019;-28
2022/10/16 11:16:39;;;;;;;10.55;6.70;;;;;;;23.13;33.11;100993.19;5108810;28;20036;-31
2022/10/16 11:19:29;;;;;;;10.45;6.22;;;;;;;23.62;32.66;101005.94;5109048;28;20116;-28
2022/10/16 11:22:05;;;;;;;9.80;6.28;;;;;;;23.94;31.51;100987.44;5108822;28;20065;-28
2022/10/16 11:24:53;;;;;;;9.38;6.03;;;;;;;23.55;31.36;100985.56;5107358;28;20084;-29
2022/10/16 11:27:44;;;;;;;10.07;6.03;;;;;;;23.77;31.79;101009.66;5108529;28;20044;-28
2022/10/16 11:30:25;;;;;;;8.48;5.35;;;;;;;23.86;32.38;101005.22;5108880;28;20535;-29